HRO Airport (Boone County) Information

FAA: HRO - ICAO: KHRO

HRO Airport Location

State Arkansas
County Boone
City Harrison
HRO Airport is 3 miles northwest of Harrison, AR.
Latitude 36-15-41.4740N
Longitude 093-09-17.0240W
Elevation 1,364ft

KHRO Airport METARs

METAR KHRO 032253Z AUTO 07003KT 10SM CLR 22/12 A2992 RMK AO2 SLP120 T02220122
Altimeter 29.92"
Temperature 22.2°C (72.0°F)
Wind 70° at 3KT
Clouds Skies are clear.
Visibility 10.0mi
Time observed: 2021-12-03T22:53:00Z

HRO Airport Details

Status Operational
Activation December 1944
Ownership Public
Usage Public
Chart KANSAS CITY
ATC on-site No
Beacon schedule sunset-sunrise
Beacon color clear green

HRO Airport Contacts

Owner BOONE COUNTY
Owner address 100 N MAIN SUITE 300, HARRISON, AR 72601
Owner phone 870-741-5760
Manager RICHARD KINCAID
Manager address PO BOX 477, GREENBRIER, AR 72058
Manager phone 501-679-4778

HRO Airport (Boone County) Radio Frequencies

HRO (Airport) Radio Frequencies

UNICOM 123
Common traffic advisory frequency (CTAF) 123